Tropical Cyclones
[Index]
Main Index Home Page Stock Weather Photos Extreme Storms Discussion Storm News and Storm Chasing Reports Tropical Cyclones / Hurricanes / Typhoons Weather Data and Links Wild Fires / Bushfires Weather Observation Techniques Weather Picture Catalogue Tornado Pictures and Reports Stock Video Footage and DVDs for sale
Season 2002-2003 Tropical Cyclone ZOE Track Map
Season 2002-2003 Summaries: [BoM-AU] [JTWC-AU] [JTWC-SIO] [JTWC-SPAC] [JTWC-SH]
<<- Previous TC | JTWC 2002-2003 Season | Next TC ->>

click for intensity scale information  Lat/long Grid: Show Hide

 Date Labels: Show Hide

Joint Typhoon Warning Centre Cyclone Data

Name: ZOE

24 Dec 2002 12:00 UTC to 01 Jan 2003 06:00 UTC

    date/time    lat    long     hPa   cat  kts
2002-12-24 12    9.0   178.3W   1006         15          
2002-12-24 18    9.7   179.1W   1002         25          
2002-12-25 00   10.4   180.0    1002         25          
2002-12-25 06   10.8   178.9    1000         30          
2002-12-25 12   10.8   177.6     997         35          
2002-12-25 18   10.7   176.4     991    1    45          
2002-12-26 00   10.7   175.4     984    2    55          
2002-12-26 06   10.7   174.6     976    2    65          
2002-12-26 12   10.8   174.0     967    3    75          
2002-12-26 18   10.9   173.4     954    3    90          
2002-12-27 00   11.2   172.5     949    3    95          
2002-12-27 06   11.5   171.5     933    4   120          
2002-12-27 12   11.7   170.7     879    5   155          
2002-12-27 18   11.9   170.3     879    5   155          
2002-12-28 00   12.1   169.9     879    5   155          
2002-12-28 06   12.3   169.5     879    5   155          
2002-12-28 12   12.4   169.2     892    5   145          
2002-12-28 18   12.5   169.3     910    5   130          
2002-12-29 00   12.7   169.5     922    4   120          
2002-12-29 06   13.0   169.9     933    4   110          
2002-12-29 12   13.5   170.4     944    4   100          
2002-12-29 18   13.9   171.0     944    4   100          
2002-12-30 00   14.4   171.5     949    3    95          
2002-12-30 06   14.9   172.0     958    3    85          
2002-12-30 12   15.5   172.3     967    3    75          
2002-12-30 18   16.1   172.8     980    2    60          
2002-12-31 00   16.8   173.4     984    2    55          
2002-12-31 06   17.7   174.1     984    2    55          
2002-12-31 12   18.6   174.8     987    1    50          
2002-12-31 18   19.6   175.2     987    1    50          
2003-01-01 00   20.7   175.2     991    1    45          
2003-01-01 06   21.9   175.9     991    1    45          
Winds are 1-min average.

Tropical cyclone tracks developed by Michael Bath using data from the Joint Typhoon Warning Centre Best Tracks and Google Maps.


[Australian Severe Weather index] [Copyright Notice] [Email Contacts] [Search This Site] [Privacy Policy]
Document: tropical_cyclone_zoe.htm Updated: 28 June 2017